Time;durP1;ratioP1;P1;durP2;ratioP2;P2;SDS_P1;SDS_P2;PMS_P1;PMS_P2;Temp;Humidity;BMP_temperature;BMP_pressure;BME280_temperature;BME280_humidity;BME280_pressure;Samples;Min_cycle;Max_cycle;Signal;HPM_P1;HPM_P2
2022/12/29 00:00:11;;;;;;;6.10;5.47;;;;;;;;;;5037980;28;20508;-71
2022/12/29 00:02:38;;;;;;;7.75;5.70;;;;;;;;;;5037074;28;20047;-71
2022/12/29 00:05:04;;;;;;;6.43;5.70;;;;;;;;;;5000903;28;20444;-70
2022/12/29 00:07:30;;;;;;;5.25;4.75;;;;;;;;;;5034080;28;20535;-71
2022/12/29 00:09:56;;;;;;;5.80;5.30;;;;;;;;;;5019552;28;20067;-72
2022/12/29 00:12:22;;;;;;;5.53;5.03;;;;;;;;;;5033956;28;20055;-72
2022/12/29 00:17:33;;;;;;;4.57;4.18;;;;;;;;;;5030708;28;20059;-71
2022/12/29 00:36:39;;;;;;;5.93;5.43;;;;;;;;;;5029235;28;20454;-71
2022/12/29 00:44:40;;;;;;;5.32;4.25;;;;;;;;;;5014579;28;20134;-72
2022/12/29 00:47:06;;;;;;;6.25;4.88;;;;;;;;;;5030439;28;20508;-72
2022/12/29 00:49:32;;;;;;;6.43;4.63;;;;;;;;;;5032635;28;20128;-72
2022/12/29 00:52:06;;;;;;;4.25;3.85;;;;;;;;;;5015567;28;20126;-71
2022/12/29 00:54:34;;;;;;;7.03;5.03;;;;;;;;;;5030722;28;20119;-72
2022/12/29 00:57:00;;;;;;;5.13;4.63;;;;;;;;;;5030294;28;20044;-73
2022/12/29 00:59:26;;;;;;;5.13;4.60;;;;;;;;;;5046554;28;20085;-73
2022/12/29 01:01:53;;;;;;;4.80;4.40;;;;;;;;;;5027320;28;20391;-71
2022/12/29 01:04:19;;;;;;;6.72;4.50;;;;;;;;;;5028654;28;20801;-72
2022/12/29 01:06:45;;;;;;;5.05;4.05;;;;;;;;;;5023881;28;20049;-71
2022/12/29 01:11:57;;;;;;;4.88;3.97;;;;;;;;;;5032660;28;20048;-70
2022/12/29 01:14:24;;;;;;;6.00;4.40;;;;;;;;;;5030017;28;20093;-72
2022/12/29 01:16:50;;;;;;;4.53;4.13;;;;;;;;;;5029079;28;20451;-71
2022/12/29 01:19:17;;;;;;;4.50;4.10;;;;;;;;;;5028536;28;20055;-72
2022/12/29 01:21:43;;;;;;;4.82;4.32;;;;;;;;;;5044283;28;20087;-72
2022/12/29 01:24:09;;;;;;;4.75;4.20;;;;;;;;;;5010693;28;20047;-72
2022/12/29 01:26:35;;;;;;;4.65;4.13;;;;;;;;;;5030296;28;20056;-72
2022/12/29 01:29:01;;;;;;;5.55;4.70;;;;;;;;;;5029959;28;20182;-72
2022/12/29 01:31:27;;;;;;;6.38;4.57;;;;;;;;;;5044567;28;20032;-72
2022/12/29 01:33:59;;;;;;;4.38;3.97;;;;;;;;;;5030412;28;20050;-71
2022/12/29 01:36:25;;;;;;;5.18;4.45;;;;;;;;;;5026318;28;20055;-71
2022/12/29 01:38:51;;;;;;;4.65;4.25;;;;;;;;;;5046604;28;20052;-72
2022/12/29 01:41:17;;;;;;;5.35;4.85;;;;;;;;;;5030634;28;20487;-72
2022/12/29 01:43:51;;;;;;;4.82;4.22;;;;;;;;;;5046642;28;20146;-72
2022/12/29 01:46:26;;;;;;;5.50;4.97;;;;;;;;;;5026063;28;20048;-72
2022/12/29 01:48:54;;;;;;;7.18;5.30;;;;;;;;;;5027173;28;20163;-72
2022/12/29 01:51:22;;;;;;;6.05;5.45;;;;;;;;;;5016119;28;20172;-71
2022/12/29 01:53:48;;;;;;;6.28;5.68;;;;;;;;;;5030401;28;20395;-72
2022/12/29 01:56:16;;;;;;;7.28;5.07;;;;;;;;;;5047922;28;20132;-72
2022/12/29 01:58:44;;;;;;;5.35;4.85;;;;;;;;;;5046144;28;20168;-72
2022/12/29 02:01:10;;;;;;;6.07;5.47;;;;;;;;;;5026652;28;20613;-72
2022/12/29 02:03:37;;;;;;;4.70;3.85;;;;;;;;;;5028880;28;20138;-72
2022/12/29 02:06:11;;;;;;;7.22;5.75;;;;;;;;;;5045871;28;20048;-73
2022/12/29 02:08:38;;;;;;;7.88;7.10;;;;;;;;;;5025921;28;20650;-73
2022/12/29 02:11:04;;;;;;;6.95;5.88;;;;;;;;;;5030721;28;20137;-73
2022/12/29 02:13:30;;;;;;;9.35;7.22;;;;;;;;;;5031836;28;20040;-74
2022/12/29 02:16:05;;;;;;;8.75;7.85;;;;;;;;;;5036349;28;20178;-74
2022/12/29 02:18:31;;;;;;;10.82;7.45;;;;;;;;;;5029331;28;20103;-74
2022/12/29 02:21:23;;;;;;;12.65;9.27;;;;;;;;;;5028113;28;20097;-73
2022/12/29 02:23:55;;;;;;;7.65;6.90;;;;;;;;;;5008267;28;20048;-73
2022/12/29 02:26:21;;;;;;;10.43;8.05;;;;;;;;;;5033166;28;20356;-73
2022/12/29 02:28:50;;;;;;;8.57;7.65;;;;;;;;;;5027696;28;20519;-72
2022/12/29 02:31:25;;;;;;;14.55;8.35;;;;;;;;;;5022476;28;20047;-72
2022/12/29 02:33:51;;;;;;;9.43;7.05;;;;;;;;;;5027737;28;20040;-72
2022/12/29 02:36:29;;;;;;;10.15;8.05;;;;;;;;;;5025459;28;20055;-72
2022/12/29 02:39:04;;;;;;;8.15;6.95;;;;;;;;;;5043328;28;20139;-71
2022/12/29 02:41:39;;;;;;;6.72;5.43;;;;;;;;;;5025619;28;20190;-71
2022/12/29 02:44:12;;;;;;;7.18;5.30;;;;;;;;;;5026970;28;20642;-71
2022/12/29 02:46:44;;;;;;;6.83;5.60;;;;;;;;;;5049791;28;20139;-71
2022/12/29 02:49:11;;;;;;;7.22;4.43;;;;;;;;;;5049357;28;20646;-71
2022/12/29 02:51:51;;;;;;;4.95;4.50;;;;;;;;;;5029551;28;20040;-71
2022/12/29 02:57:14;;;;;;;5.90;3.97;;;;;;;;;;5030847;28;20056;-71
2022/12/29 02:59:41;;;;;;;7.20;4.70;;;;;;;;;;5021485;28;20048;-72
2022/12/29 03:02:16;;;;;;;5.13;4.03;;;;;;;;;;5015541;28;20045;-73
2022/12/29 03:04:45;;;;;;;4.65;3.90;;;;;;;;;;5032938;28;20048;-77
2022/12/29 03:07:26;;;;;;;5.47;4.32;;;;;;;;;;5029961;28;20071;-76
2022/12/29 03:09:52;;;;;;;4.60;4.20;;;;;;;;;;5026703;28;20055;-75
2022/12/29 03:18:10;;;;;;;4.38;3.35;;;;;;;;;;5048180;28;20044;-77
2022/12/29 03:20:46;;;;;;;11.25;3.72;;;;;;;;;;5049481;28;20036;-75
2022/12/29 03:23:13;;;;;;;4.43;3.15;;;;;;;;;;5049237;28;20037;-77
2022/12/29 03:25:41;;;;;;;4.75;3.22;;;;;;;;;;5029544;28;20044;-77
2022/12/29 03:28:10;;;;;;;5.35;3.53;;;;;;;;;;5046637;28;20044;-76
2022/12/29 03:30:37;;;;;;;4.50;3.08;;;;;;;;;;5027119;28;20055;-76
2022/12/29 03:33:05;;;;;;;4.18;3.05;;;;;;;;;;5031290;28;20064;-75
2022/12/29 03:35:33;;;;;;;3.95;3.50;;;;;;;;;;5051517;28;20127;-76
2022/12/29 03:38:04;;;;;;;3.92;3.55;;;;;;;;;;5019038;28;20044;-76
2022/12/29 03:40:31;;;;;;;3.83;3.10;;;;;;;;;;5050109;28;20036;-76
2022/12/29 03:42:58;;;;;;;3.65;3.33;;;;;;;;;;5032152;28;20083;-76
2022/12/29 03:45:24;;;;;;;4.15;3.30;;;;;;;;;;5028908;28;20036;-76
2022/12/29 03:47:51;;;;;;;4.03;3.22;;;;;;;;;;5020575;28;20040;-76
2022/12/29 03:50:17;;;;;;;3.40;2.03;;;;;;;;;;5037157;28;20057;-75
2022/12/29 03:52:43;;;;;;;4.97;2.50;;;;;;;;;;5034984;28;20056;-75
2022/12/29 03:55:09;;;;;;;7.97;2.22;;;;;;;;;;5033622;28;20139;-75
2022/12/29 03:57:35;;;;;;;5.78;2.00;;;;;;;;;;5036135;28;21807;-75
2022/12/29 04:00:01;;;;;;;1.80;1.40;;;;;;;;;;5050696;28;20035;-75
2022/12/29 04:02:27;;;;;;;2.63;1.50;;;;;;;;;;5033516;28;20349;-76
2022/12/29 04:04:53;;;;;;;3.65;1.70;;;;;;;;;;5032666;28;20131;-76
2022/12/29 04:07:19;;;;;;;1.60;1.48;;;;;;;;;;5032725;28;20221;-75
2022/12/29 04:09:46;;;;;;;1.52;1.40;;;;;;;;;;5031838;28;20043;-76
2022/12/29 04:12:12;;;;;;;2.42;1.48;;;;;;;;;;5032800;28;21546;-76
2022/12/29 04:14:38;;;;;;;3.60;1.30;;;;;;;;;;5017795;28;20602;-76
2022/12/29 04:17:04;;;;;;;6.05;2.22;;;;;;;;;;5033467;28;20452;-76
2022/12/29 04:19:30;;;;;;;2.92;1.85;;;;;;;;;;5017338;28;21252;-76
2022/12/29 04:21:56;;;;;;;3.80;1.63;;;;;;;;;;5014162;28;20665;-76
2022/12/29 04:24:22;;;;;;;1.85;1.67;;;;;;;;;;5032275;28;20131;-74
2022/12/29 04:26:48;;;;;;;3.63;1.95;;;;;;;;;;5032674;28;20656;-74
2022/12/29 04:29:14;;;;;;;5.72;2.30;;;;;;;;;;5018155;28;20041;-75
2022/12/29 04:31:40;;;;;;;6.90;1.60;;;;;;;;;;5029052;28;20101;-76
2022/12/29 04:34:06;;;;;;;3.67;1.98;;;;;;;;;;5025793;28;20048;-76
2022/12/29 04:36:32;;;;;;;4.00;2.03;;;;;;;;;;5026011;28;20045;-76
2022/12/29 04:38:58;;;;;;;2.28;1.42;;;;;;;;;;5029226;28;21406;-76
2022/12/29 04:41:25;;;;;;;3.72;1.38;;;;;;;;;;5032318;28;20048;-75
2022/12/29 04:43:51;;;;;;;6.28;1.48;;;;;;;;;;5026257;28;20047;-75
2022/12/29 04:46:17;;;;;;;2.70;1.20;;;;;;;;;;5028237;28;20373;-75
2022/12/29 04:48:43;;;;;;;4.47;1.77;;;;;;;;;;5046569;28;20171;-75
2022/12/29 04:51:09;;;;;;;2.45;1.00;;;;;;;;;;5029410;28;20484;-75
2022/12/29 04:53:35;;;;;;;4.32;1.00;;;;;;;;;;5048260;28;20400;-75
2022/12/29 04:56:01;;;;;;;4.03;1.58;;;;;;;;;;5048069;28;20131;-75
2022/12/29 04:58:27;;;;;;;5.13;1.27;;;;;;;;;;5043754;28;20367;-75
2022/12/29 05:00:53;;;;;;;3.00;1.15;;;;;;;;;;5047218;28;20167;-75
2022/12/29 05:03:20;;;;;;;5.45;1.40;;;;;;;;;;5025863;28;20126;-75
2022/12/29 05:05:46;;;;;;;5.60;1.48;;;;;;;;;;5020892;28;20044;-76
2022/12/29 05:08:12;;;;;;;5.55;1.30;;;;;;;;;;5044389;28;20136;-76
2022/12/29 05:10:38;;;;;;;9.40;1.60;;;;;;;;;;5024116;28;20102;-76
2022/12/29 05:13:04;;;;;;;7.15;1.08;;;;;;;;;;5046705;28;20667;-76
2022/12/29 05:15:30;;;;;;;3.17;1.42;;;;;;;;;;5046161;28;20168;-75
2022/12/29 05:17:56;;;;;;;7.78;1.75;;;;;;;;;;5045956;28;20044;-76
2022/12/29 05:20:22;;;;;;;3.75;1.27;;;;;;;;;;5032915;28;20042;-76
2022/12/29 05:22:48;;;;;;;3.33;1.60;;;;;;;;;;5046215;28;20036;-76
2022/12/29 05:25:14;;;;;;;6.97;1.63;;;;;;;;;;5030984;28;20054;-76
2022/12/29 05:27:40;;;;;;;5.45;1.17;;;;;;;;;;5012073;28;21390;-76
2022/12/29 05:30:07;;;;;;;11.95;2.00;;;;;;;;;;5017202;28;20032;-76
2022/12/29 05:32:33;;;;;;;9.18;1.60;;;;;;;;;;5032389;28;20288;-76
2022/12/29 05:34:59;;;;;;;7.60;2.15;;;;;;;;;;5050928;28;20039;-76
2022/12/29 05:37:25;;;;;;;5.38;1.00;;;;;;;;;;5033135;28;20591;-76
2022/12/29 05:39:51;;;;;;;6.07;1.60;;;;;;;;;;5009330;28;20552;-75
2022/12/29 05:42:17;;;;;;;7.40;2.00;;;;;;;;;;5048836;28;20563;-76
2022/12/29 05:44:43;;;;;;;7.72;1.58;;;;;;;;;;5028472;28;20543;-76
2022/12/29 05:47:09;;;;;;;11.20;2.10;;;;;;;;;;5050357;28;20052;-76
2022/12/29 05:49:35;;;;;;;10.60;1.65;;;;;;;;;;5033333;28;20061;-75
2022/12/29 05:52:02;;;;;;;13.20;1.63;;;;;;;;;;5029606;28;20141;-74
2022/12/29 05:54:28;;;;;;;7.85;1.70;;;;;;;;;;5026603;28;20055;-75
2022/12/29 05:56:54;;;;;;;6.80;1.75;;;;;;;;;;5048775;28;21576;-76
2022/12/29 05:59:20;;;;;;;6.63;1.70;;;;;;;;;;5014130;28;20636;-76
2022/12/29 06:01:46;;;;;;;7.22;2.03;;;;;;;;;;5017805;28;20102;-76
2022/12/29 06:04:12;;;;;;;7.03;1.63;;;;;;;;;;5034566;28;20067;-77
2022/12/29 06:06:39;;;;;;;6.30;1.55;;;;;;;;;;5032591;28;20050;-77
2022/12/29 06:09:05;;;;;;;10.15;2.83;;;;;;;;;;5033841;28;20044;-77
2022/12/29 06:11:32;;;;;;;7.15;1.88;;;;;;;;;;5018512;28;20040;-77
2022/12/29 06:13:58;;;;;;;6.70;1.73;;;;;;;;;;5021310;28;20072;-77
2022/12/29 06:16:24;;;;;;;5.57;1.75;;;;;;;;;;5017528;28;20650;-77
2022/12/29 06:18:50;;;;;;;10.32;2.00;;;;;;;;;;5034315;28;20072;-76
2022/12/29 06:21:16;;;;;;;5.18;1.60;;;;;;;;;;5036619;28;20048;-79
2022/12/29 06:23:42;;;;;;;12.90;2.20;;;;;;;;;;5033731;28;20052;-77
2022/12/29 06:26:08;;;;;;;7.88;1.48;;;;;;;;;;5043746;28;20054;-77
2022/12/29 06:28:35;;;;;;;10.95;1.80;;;;;;;;;;5030380;28;20700;-77
2022/12/29 06:31:02;;;;;;;10.25;2.15;;;;;;;;;;5036484;28;20047;-77
2022/12/29 06:33:28;;;;;;;5.22;2.08;;;;;;;;;;5039401;28;20686;-77
2022/12/29 06:35:55;;;;;;;4.22;1.73;;;;;;;;;;5053918;28;20039;-77
2022/12/29 06:38:21;;;;;;;7.00;1.52;;;;;;;;;;5037116;28;20447;-76
2022/12/29 06:40:47;;;;;;;4.25;1.92;;;;;;;;;;5055582;28;20058;-76
2022/12/29 06:43:13;;;;;;;13.02;2.25;;;;;;;;;;5034594;28;20062;-76
2022/12/29 06:45:40;;;;;;;8.93;2.03;;;;;;;;;;5018556;28;20059;-76
2022/12/29 06:48:08;;;;;;;8.65;1.65;;;;;;;;;;5037777;28;20079;-76
2022/12/29 06:50:34;;;;;;;10.35;1.73;;;;;;;;;;5036049;28;20060;-76
2022/12/29 06:53:01;;;;;;;9.10;1.80;;;;;;;;;;5018366;28;20044;-75
2022/12/29 06:55:28;;;;;;;10.68;1.92;;;;;;;;;;5027645;28;20075;-76
2022/12/29 06:57:57;;;;;;;10.30;1.98;;;;;;;;;;5008577;28;20097;-76
2022/12/29 07:00:24;;;;;;;9.57;1.67;;;;;;;;;;5042541;28;20129;-75
2022/12/29 07:02:50;;;;;;;14.20;2.58;;;;;;;;;;5025100;28;20040;-76
2022/12/29 07:05:16;;;;;;;12.93;2.60;;;;;;;;;;5044775;28;20084;-77
2022/12/29 07:07:42;;;;;;;15.30;2.42;;;;;;;;;;5014715;28;20068;-76
2022/12/29 07:10:09;;;;;;;11.23;1.92;;;;;;;;;;5045083;28;21923;-76
2022/12/29 07:12:35;;;;;;;12.63;2.25;;;;;;;;;;5026350;28;20055;-76
2022/12/29 07:15:01;;;;;;;12.57;2.40;;;;;;;;;;5023102;28;20738;-76
2022/12/29 07:17:27;;;;;;;12.13;1.95;;;;;;;;;;5025888;28;21323;-75
2022/12/29 07:19:53;;;;;;;16.02;2.38;;;;;;;;;;5012011;28;20161;-76
2022/12/29 07:22:19;;;;;;;10.50;1.70;;;;;;;;;;5035033;28;20043;-76
2022/12/29 07:24:45;;;;;;;8.15;2.20;;;;;;;;;;5013543;28;21367;-76
2022/12/29 07:27:11;;;;;;;13.35;1.67;;;;;;;;;;5043917;28;20110;-76
2022/12/29 07:29:38;;;;;;;11.73;2.30;;;;;;;;;;5027757;28;20048;-77
2022/12/29 07:32:04;;;;;;;16.17;2.83;;;;;;;;;;5044987;28;20043;-76
2022/12/29 07:34:30;;;;;;;12.25;2.35;;;;;;;;;;5046293;28;20036;-76
2022/12/29 07:36:56;;;;;;;10.18;1.83;;;;;;;;;;5036139;28;20040;-76
2022/12/29 07:39:22;;;;;;;11.50;2.10;;;;;;;;;;5018920;28;20054;-77
2022/12/29 07:41:48;;;;;;;11.23;1.67;;;;;;;;;;5029608;28;20829;-76
2022/12/29 07:44:16;;;;;;;8.80;2.13;;;;;;;;;;5029299;28;20127;-76
2022/12/29 07:46:42;;;;;;;10.73;2.95;;;;;;;;;;5046010;28;20056;-76
2022/12/29 07:49:08;;;;;;;14.73;2.30;;;;;;;;;;5056706;28;20052;-76
2022/12/29 07:51:34;;;;;;;19.65;2.60;;;;;;;;;;5036848;28;20051;-77
2022/12/29 07:54:01;;;;;;;10.95;2.05;;;;;;;;;;5024210;28;20045;-76
2022/12/29 07:56:27;;;;;;;12.90;2.92;;;;;;;;;;5038311;28;20567;-76
2022/12/29 07:58:53;;;;;;;10.82;1.90;;;;;;;;;;5038298;28;20181;-76
2022/12/29 08:01:19;;;;;;;10.68;2.30;;;;;;;;;;5056033;28;20037;-77
2022/12/29 08:03:45;;;;;;;11.90;2.33;;;;;;;;;;5035378;28;20071;-77
2022/12/29 08:06:12;;;;;;;13.73;3.50;;;;;;;;;;5051208;28;20051;-78
2022/12/29 08:08:38;;;;;;;11.68;1.98;;;;;;;;;;5050511;28;20036;-76
2022/12/29 08:11:04;;;;;;;6.88;1.67;;;;;;;;;;5022786;28;20047;-75
2022/12/29 08:13:30;;;;;;;10.00;2.15;;;;;;;;;;5036903;28;20032;-71
2022/12/29 08:15:58;;;;;;;9.25;2.47;;;;;;;;;;5031344;28;20036;-71
2022/12/29 08:18:24;;;;;;;15.18;2.92;;;;;;;;;;5034134;28;20048;-70
2022/12/29 08:20:50;;;;;;;7.28;1.88;;;;;;;;;;5034973;28;20511;-71
2022/12/29 08:23:16;;;;;;;6.60;2.03;;;;;;;;;;5034668;28;20733;-72
2022/12/29 08:25:42;;;;;;;10.18;1.90;;;;;;;;;;5037824;28;20040;-72
2022/12/29 08:28:09;;;;;;;9.73;1.98;;;;;;;;;;5035179;28;20140;-72
2022/12/29 08:30:36;;;;;;;8.45;1.90;;;;;;;;;;5034187;28;20445;-72
2022/12/29 08:33:02;;;;;;;14.23;2.20;;;;;;;;;;5052944;28;20559;-72
2022/12/29 08:35:28;;;;;;;9.32;2.13;;;;;;;;;;5031665;28;20658;-71
2022/12/29 08:37:54;;;;;;;14.65;2.47;;;;;;;;;;5032827;28;20064;-69
2022/12/29 08:40:20;;;;;;;12.38;2.22;;;;;;;;;;5033137;28;20047;-71
2022/12/29 08:42:46;;;;;;;10.60;2.63;;;;;;;;;;5031701;28;20052;-71
2022/12/29 08:45:12;;;;;;;7.60;2.13;;;;;;;;;;5034530;28;20249;-72
2022/12/29 08:47:40;;;;;;;13.45;2.53;;;;;;;;;;5015573;28;20562;-72
2022/12/29 08:50:06;;;;;;;11.68;2.83;;;;;;;;;;5034310;28;20234;-70
2022/12/29 08:52:32;;;;;;;8.73;2.00;;;;;;;;;;5037208;28;20048;-70
2022/12/29 08:54:58;;;;;;;17.90;2.85;;;;;;;;;;5035617;28;20071;-70
2022/12/29 08:57:24;;;;;;;17.65;2.90;;;;;;;;;;5031128;28;20089;-71
2022/12/29 08:59:50;;;;;;;14.25;2.30;;;;;;;;;;5048720;28;20044;-71
2022/12/29 09:02:17;;;;;;;14.38;2.45;;;;;;;;;;5027993;28;20548;-71
2022/12/29 09:04:43;;;;;;;17.90;2.72;;;;;;;;;;5031492;28;20043;-70
2022/12/29 09:07:09;;;;;;;17.98;3.13;;;;;;;;;;5034289;28;20670;-71
2022/12/29 09:09:35;;;;;;;23.08;3.55;;;;;;;;;;5019942;28;20090;-72
2022/12/29 09:12:01;;;;;;;13.32;2.15;;;;;;;;;;5018540;28;20108;-72
2022/12/29 09:14:27;;;;;;;21.17;3.10;;;;;;;;;;5052782;28;20480;-72
2022/12/29 09:19:39;;;;;;;17.58;3.53;;;;;;;;;;5034147;28;20693;-71
2022/12/29 09:22:05;;;;;;;18.13;3.15;;;;;;;;;;5016724;28;20118;-71
2022/12/29 09:24:31;;;;;;;19.52;5.60;;;;;;;;;;5032299;28;20052;-71
2022/12/29 09:26:57;;;;;;;24.92;3.70;;;;;;;;;;5051560;28;20039;-72
2022/12/29 09:29:23;;;;;;;17.30;3.53;;;;;;;;;;5013384;28;20087;-72
2022/12/29 09:31:50;;;;;;;14.35;3.42;;;;;;;;;;5029945;28;20146;-73
2022/12/29 09:34:16;;;;;;;20.05;2.72;;;;;;;;;;5025644;28;20056;-72
2022/12/29 09:36:42;;;;;;;12.98;3.00;;;;;;;;;;5027445;28;20039;-71
2022/12/29 09:39:08;;;;;;;23.17;3.15;;;;;;;;;;5027787;28;20044;-72
2022/12/29 09:41:34;;;;;;;24.45;3.55;;;;;;;;;;5032228;28;20871;-72
2022/12/29 09:44:19;;;;;;;26.45;3.97;;;;;;;;;;5032256;28;20559;-72
2022/12/29 09:46:46;;;;;;;;;;;;;;;;;;5028340;28;20658;-72
2022/12/29 09:49:14;;;;;;;13.00;3.45;;;;;;;;;;5047961;28;20399;-71
2022/12/29 09:51:42;;;;;;;17.60;3.63;;;;;;;;;;5012395;28;22428;-71
2022/12/29 09:54:20;;;;;;;8.13;2.05;;;;;;;;;;5016568;28;20174;-72
2022/12/29 09:56:46;;;;;;;16.73;2.65;;;;;;;;;;5030964;28;20510;-72
2022/12/29 09:59:16;;;;;;;19.08;2.67;;;;;;;;;;5033317;28;20045;-72
2022/12/29 10:01:44;;;;;;;14.60;3.08;;;;;;;;;;5019783;28;20075;-79
2022/12/29 10:04:11;;;;;;;16.25;2.88;;;;;;;;;;5034490;28;20043;-78
2022/12/29 10:06:47;;;;;;;9.07;2.15;;;;;;;;;;5037945;28;20069;-78
2022/12/29 10:09:19;;;;;;;9.80;2.42;;;;;;;;;;5040795;28;20138;-78
2022/12/29 10:12:04;;;;;;;23.42;3.42;;;;;;;;;;5040901;28;20167;-79
2022/12/29 10:14:30;;;;;;;11.85;3.10;;;;;;;;;;5037773;28;20512;-79
2022/12/29 10:16:59;;;;;;;10.25;1.70;;;;;;;;;;5042242;28;20112;-79
2022/12/29 10:19:39;;;;;;;15.57;2.55;;;;;;;;;;5040830;28;20044;-77
2022/12/29 10:22:13;;;;;;;14.63;2.38;;;;;;;;;;5057165;28;20090;-78
2022/12/29 10:24:39;;;;;;;;;;;;;;;;;;5024869;28;20231;-79
2022/12/29 10:27:10;;;;;;;6.35;1.98;;;;;;;;;;5039156;28;19927;-78
2022/12/29 10:29:40;;;;;;;15.95;3.25;;;;;;;;;;5035116;28;20061;-77
2022/12/29 10:32:35;;;;;;;12.48;2.20;;;;;;;;;;5038806;28;20047;-78
2022/12/29 10:35:05;;;;;;;10.77;2.03;;;;;;;;;;5024032;28;20057;-77
2022/12/29 10:37:43;;;;;;;14.25;2.58;;;;;;;;;;5057266;28;20117;-78
2022/12/29 10:40:17;;;;;;;9.65;2.00;;;;;;;;;;5048719;28;20780;-77
2022/12/29 10:42:50;;;;;;;9.85;2.42;;;;;;;;;;5044509;28;20052;-77
2022/12/29 10:45:17;;;;;;;15.95;2.58;;;;;;;;;;5044307;28;20225;-78
2022/12/29 10:47:50;;;;;;;12.52;1.88;;;;;;;;;;5040744;28;20511;-78
2022/12/29 10:50:16;;;;;;;16.17;2.25;;;;;;;;;;5045121;28;20084;-78
2022/12/29 10:52:42;;;;;;;11.23;2.63;;;;;;;;;;5042162;28;20434;-78
2022/12/29 10:55:13;;;;;;;11.73;2.17;;;;;;;;;;5031610;28;20033;-77
2022/12/29 10:57:44;;;;;;;4.55;1.33;;;;;;;;;;5044801;28;20134;-76
2022/12/29 11:00:16;;;;;;;12.55;2.22;;;;;;;;;;5046507;28;20043;-77
2022/12/29 11:02:42;;;;;;;14.55;2.25;;;;;;;;;;5027731;28;20048;-78
2022/12/29 11:05:19;;;;;;;14.43;2.70;;;;;;;;;;5028209;28;20047;-78
2022/12/29 11:07:48;;;;;;;10.63;1.90;;;;;;;;;;5044236;28;20115;-78
2022/12/29 11:10:28;;;;;;;8.32;1.83;;;;;;;;;;5061691;28;20672;-78
2022/12/29 11:12:59;;;;;;;11.50;2.20;;;;;;;;;;5027724;28;20127;-78
2022/12/29 11:15:25;;;;;;;18.15;2.90;;;;;;;;;;5043111;28;20464;-77
2022/12/29 11:17:53;;;;;;;21.02;3.17;;;;;;;;;;5031880;28;20048;-77
2022/12/29 11:20:33;;;;;;;16.77;3.65;;;;;;;;;;5037901;28;20087;-77
2022/12/29 11:23:00;;;;;;;13.55;3.22;;;;;;;;;;5033652;28;20768;-78
2022/12/29 11:25:26;;;;;;;14.18;2.60;;;;;;;;;;5015754;28;20036;-77
2022/12/29 11:27:56;;;;;;;19.55;3.08;;;;;;;;;;5013485;28;20101;-76
2022/12/29 11:30:28;;;;;;;23.00;3.92;;;;;;;;;;5055608;28;20036;-78
2022/12/29 11:32:54;;;;;;;24.88;4.53;;;;;;;;;;5036253;28;20040;-78
2022/12/29 11:35:31;;;;;;;20.52;3.08;;;;;;;;;;5039162;28;20036;-77
2022/12/29 11:37:59;;;;;;;23.67;3.78;;;;;;;;;;5020092;28;20060;-77
2022/12/29 11:40:25;;;;;;;20.48;2.88;;;;;;;;;;5055924;28;20054;-77
2022/12/29 11:42:53;;;;;;;26.33;3.67;;;;;;;;;;5036849;28;20049;-77
2022/12/29 11:45:26;;;;;;;19.58;3.75;;;;;;;;;;5032891;28;20099;-77
2022/12/29 11:47:58;;;;;;;27.42;3.65;;;;;;;;;;5021420;28;20044;-77
2022/12/29 11:50:32;;;;;;;21.52;4.07;;;;;;;;;;5036579;28;20223;-77
2022/12/29 11:53:00;;;;;;;20.00;3.78;;;;;;;;;;5041183;28;20071;-76
2022/12/29 11:55:27;;;;;;;19.42;4.85;;;;;;;;;;5036572;28;20127;-76
2022/12/29 11:57:55;;;;;;;21.42;3.83;;;;;;;;;;5041485;28;20663;-77
2022/12/29 12:00:24;;;;;;;27.50;4.63;;;;;;;;;;5043594;28;20051;-78
2022/12/29 12:02:52;;;;;;;21.00;3.90;;;;;;;;;;5038801;28;20516;-76
2022/12/29 12:05:36;;;;;;;20.23;4.25;;;;;;;;;;5025993;28;20045;-76
2022/12/29 12:08:02;;;;;;;26.63;4.00;;;;;;;;;;5040544;28;20040;-78
2022/12/29 12:10:32;;;;;;;20.65;3.88;;;;;;;;;;5041652;28;20049;-79
2022/12/29 12:12:58;;;;;;;21.15;4.10;;;;;;;;;;5021724;28;20047;-78
2022/12/29 12:15:36;;;;;;;18.17;4.05;;;;;;;;;;5038797;28;20085;-78
2022/12/29 12:18:06;;;;;;;19.52;4.50;;;;;;;;;;5040224;28;20107;-78
2022/12/29 12:20:32;;;;;;;14.93;4.60;;;;;;;;;;5055523;28;20571;-83
2022/12/29 12:23:04;;;;;;;25.23;5.20;;;;;;;;;;5060731;28;20208;-83
2022/12/29 12:25:35;;;;;;;16.63;4.60;;;;;;;;;;5038377;28;20055;-83
2022/12/29 12:28:05;;;;;;;18.13;3.60;;;;;;;;;;5021454;28;20060;-84
2022/12/29 12:30:36;;;;;;;20.17;3.42;;;;;;;;;;5038059;28;20088;-83
2022/12/29 12:33:11;;;;;;;15.32;3.35;;;;;;;;;;5034997;28;20123;-84
2022/12/29 12:35:46;;;;;;;21.00;3.65;;;;;;;;;;5024640;28;20793;-84
2022/12/29 12:38:24;;;;;;;27.65;5.88;;;;;;;;;;5037669;28;20056;-82
2022/12/29 12:41:14;;;;;;;20.70;4.03;;;;;;;;;;5042763;28;20047;-83
2022/12/29 12:43:41;;;;;;;21.30;3.90;;;;;;;;;;5008043;28;20749;-82
2022/12/29 12:46:20;;;;;;;22.40;3.45;;;;;;;;;;5039140;28;20495;-82
2022/12/29 12:49:03;;;;;;;17.95;2.85;;;;;;;;;;5051220;28;20047;-84
2022/12/29 12:51:48;;;;;;;25.70;3.72;;;;;;;;;;5051701;28;20051;-84
2022/12/29 12:54:23;;;;;;;19.42;2.90;;;;;;;;;;5039376;28;20036;-82
2022/12/29 12:56:58;;;;;;;18.20;3.17;;;;;;;;;;5035519;28;20084;-82
2022/12/29 12:59:43;;;;;;;17.52;3.67;;;;;;;;;;5036462;28;20071;-82
2022/12/29 13:02:22;;;;;;;23.02;3.47;;;;;;;;;;5034372;28;20083;-82
2022/12/29 13:04:48;;;;;;;19.95;2.70;;;;;;;;;;5034741;28;20092;-81
2022/12/29 13:07:21;;;;;;;15.00;2.38;;;;;;;;;;5033460;28;20052;-80
2022/12/29 13:10:01;;;;;;;11.05;1.90;;;;;;;;;;5028433;28;20047;-84
2022/12/29 13:12:41;;;;;;;9.77;1.77;;;;;;;;;;5053700;28;20067;-84
2022/12/29 13:15:26;;;;;;;10.85;3.03;;;;;;;;;;5017596;28;20039;-83
2022/12/29 13:17:57;;;;;;;13.38;2.55;;;;;;;;;;5018405;28;20050;-84
2022/12/29 13:20:42;;;;;;;8.98;2.00;;;;;;;;;;5017897;28;20044;-84
2022/12/29 13:23:11;;;;;;;15.48;1.98;;;;;;;;;;5035228;28;20036;-82
2022/12/29 13:25:47;;;;;;;17.33;2.05;;;;;;;;;;5038721;28;20122;-82
2022/12/29 13:28:23;;;;;;;8.82;1.58;;;;;;;;;;5034968;28;20044;-84
2022/12/29 13:31:04;;;;;;;11.68;1.65;;;;;;;;;;5035086;28;20557;-83
2022/12/29 13:33:34;;;;;;;7.70;1.92;;;;;;;;;;5036452;28;20600;-84
2022/12/29 13:36:03;;;;;;;13.05;2.72;;;;;;;;;;5038337;28;20036;-83
2022/12/29 13:38:40;;;;;;;12.38;1.60;;;;;;;;;;5042241;28;20116;-84
2022/12/29 13:41:11;;;;;;;9.23;1.65;;;;;;;;;;5030769;28;20051;-84
2022/12/29 13:43:40;;;;;;;10.73;1.70;;;;;;;;;;5024807;28;20167;-82
2022/12/29 13:46:28;;;;;;;10.25;1.65;;;;;;;;;;5037814;28;20055;-83
2022/12/29 13:48:54;;;;;;;4.85;1.75;;;;;;;;;;5024740;28;20072;-82
2022/12/29 13:51:21;;;;;;;8.68;1.60;;;;;;;;;;5016760;28;20627;-83
2022/12/29 13:53:57;;;;;;;9.98;1.77;;;;;;;;;;5033699;28;20041;-82
2022/12/29 13:56:26;;;;;;;15.45;1.60;;;;;;;;;;5038713;28;20118;-85
2022/12/29 13:59:11;;;;;;;8.98;2.55;;;;;;;;;;5038132;28;20179;-83
2022/12/29 14:01:55;;;;;;;28.92;6.53;;;;;;;;;;5020867;28;20044;-83
2022/12/29 14:04:23;;;;;;;18.67;4.40;;;;;;;;;;5031348;28;20125;-83
2022/12/29 14:07:16;;;;;;;13.15;2.88;;;;;;;;;;5034481;28;20036;-83
2022/12/29 14:09:42;;;;;;;8.35;2.95;;;;;;;;;;5013902;28;20598;-81
2022/12/29 14:12:28;;;;;;;11.77;2.55;;;;;;;;;;5019134;28;20036;-81
2022/12/29 14:14:54;;;;;;;12.45;3.58;;;;;;;;;;5035120;28;20128;-80
2022/12/29 14:17:21;;;;;;;10.43;3.22;;;;;;;;;;5033786;28;20047;-80
2022/12/29 14:19:51;;;;;;;8.63;2.88;;;;;;;;;;5034430;28;20091;-82
2022/12/29 14:22:24;;;;;;;11.63;3.08;;;;;;;;;;5032387;28;20566;-80
2022/12/29 14:24:50;;;;;;;12.60;2.60;;;;;;;;;;5034511;28;20048;-81
2022/12/29 14:27:16;;;;;;;11.93;1.85;;;;;;;;;;5018125;28;20129;-81
2022/12/29 14:29:44;;;;;;;11.65;2.25;;;;;;;;;;5032782;28;20596;-81
2022/12/29 14:32:25;;;;;;;10.55;2.60;;;;;;;;;;5017337;28;20205;-79
2022/12/29 14:34:59;;;;;;;9.80;2.30;;;;;;;;;;5015587;28;20043;-79
2022/12/29 14:37:25;;;;;;;9.88;2.05;;;;;;;;;;5024315;28;20484;-79
2022/12/29 14:40:03;;;;;;;7.47;1.52;;;;;;;;;;5033250;28;20115;-79
2022/12/29 14:42:35;;;;;;;7.57;2.13;;;;;;;;;;5030126;28;20259;-80
2022/12/29 14:45:08;;;;;;;8.93;1.70;;;;;;;;;;5021341;28;20059;-82
2022/12/29 14:47:36;;;;;;;10.77;1.88;;;;;;;;;;5035261;28;20400;-80
2022/12/29 14:50:22;;;;;;;12.18;3.00;;;;;;;;;;5031814;28;20147;-79
2022/12/29 14:52:56;;;;;;;11.80;2.25;;;;;;;;;;5040784;28;20494;-80
2022/12/29 14:55:22;;;;;;;;;;;;;;;;;;5047634;28;20044;-78
2022/12/29 14:57:50;;;;;;;10.05;1.90;;;;;;;;;;5037131;28;19923;-80
2022/12/29 15:00:22;;;;;;;9.57;2.15;;;;;;;;;;5022750;28;20142;-79
2022/12/29 15:02:50;;;;;;;10.32;2.72;;;;;;;;;;5035478;28;20894;-79
2022/12/29 15:05:35;;;;;;;9.80;2.00;;;;;;;;;;5039577;28;20170;-80
2022/12/29 15:08:03;;;;;;;11.40;2.45;;;;;;;;;;5020290;28;20047;-79
2022/12/29 15:10:34;;;;;;;9.38;2.50;;;;;;;;;;5023036;28;20032;-79
2022/12/29 15:13:04;;;;;;;13.73;2.28;;;;;;;;;;5035472;28;20078;-78
2022/12/29 15:15:36;;;;;;;10.05;2.10;;;;;;;;;;5026881;28;20040;-80
2022/12/29 15:18:31;;;;;;;10.15;1.95;;;;;;;;;;5039131;28;20097;-79
2022/12/29 15:20:59;;;;;;;12.65;2.35;;;;;;;;;;5016695;28;21146;-79
2022/12/29 15:23:26;;;;;;;9.30;2.00;;;;;;;;;;5034977;28;20067;-77
2022/12/29 15:25:56;;;;;;;13.30;2.33;;;;;;;;;;5035235;28;20131;-80
2022/12/29 15:28:23;;;;;;;12.55;2.50;;;;;;;;;;5038589;28;20475;-76